sensor_id;sensor_type;location;lat;lon;timestamp;P1;durP1;ratioP1;P2;durP2;ratioP2
23490;SDS011;14683;50.038;8.078;2023-02-15T07:00:22;396.70;;;40.33;;
23490;SDS011;14683;50.038;8.078;2023-02-15T07:02:53;172.05;;;31.00;;
23490;SDS011;14683;50.038;8.078;2023-02-15T07:05:23;184.18;;;28.65;;
23490;SDS011;14683;50.038;8.078;2023-02-15T07:07:50;295.00;;;37.15;;
23490;SDS011;14683;50.038;8.078;2023-02-15T07:10:16;221.85;;;31.65;;
23490;SDS011;14683;50.038;8.078;2023-02-15T07:12:42;148.73;;;28.65;;
23490;SDS011;14683;50.038;8.078;2023-02-15T07:15:10;163.10;;;29.48;;
23490;SDS011;14683;50.038;8.078;2023-02-15T07:17:43;159.82;;;30.75;;
23490;SDS011;14683;50.038;8.078;2023-02-15T07:20:10;159.10;;;29.15;;
23490;SDS011;14683;50.038;8.078;2023-02-15T07:22:38;477.27;;;44.38;;
23490;SDS011;14683;50.038;8.078;2023-02-15T07:25:05;120.93;;;28.08;;
23490;SDS011;14683;50.038;8.078;2023-02-15T07:27:32;84.38;;;23.92;;
23490;SDS011;14683;50.038;8.078;2023-02-15T07:29:58;89.13;;;26.13;;
23490;SDS011;14683;50.038;8.078;2023-02-15T07:32:28;95.88;;;22.45;;
23490;SDS011;14683;50.038;8.078;2023-02-15T07:34:55;182.70;;;29.15;;
23490;SDS011;14683;50.038;8.078;2023-02-15T07:37:21;261.15;;;34.45;;
23490;SDS011;14683;50.038;8.078;2023-02-15T07:39:47;175.57;;;29.42;;
23490;SDS011;14683;50.038;8.078;2023-02-15T07:42:13;119.57;;;25.20;;
23490;SDS011;14683;50.038;8.078;2023-02-15T07:44:40;340.27;;;34.30;;
23490;SDS011;14683;50.038;8.078;2023-02-15T07:47:06;225.85;;;31.05;;
23490;SDS011;14683;50.038;8.078;2023-02-15T07:49:32;92.80;;;26.23;;
23490;SDS011;14683;50.038;8.078;2023-02-15T07:52:00;90.35;;;24.27;;
23490;SDS011;14683;50.038;8.078;2023-02-15T07:54:26;106.28;;;25.25;;
23490;SDS011;14683;50.038;8.078;2023-02-15T07:56:52;146.23;;;25.83;;
23490;SDS011;14683;50.038;8.078;2023-02-15T07:59:18;135.63;;;24.27;;
23490;SDS011;14683;50.038;8.078;2023-02-15T08:01:44;80.05;;;22.05;;
23490;SDS011;14683;50.038;8.078;2023-02-15T08:04:10;131.10;;;25.73;;
23490;SDS011;14683;50.038;8.078;2023-02-15T08:06:37;145.20;;;26.65;;
23490;SDS011;14683;50.038;8.078;2023-02-15T08:09:06;110.05;;;23.42;;
23490;SDS011;14683;50.038;8.078;2023-02-15T08:11:37;95.43;;;23.45;;
23490;SDS011;14683;50.038;8.078;2023-02-15T08:14:15;87.97;;;23.77;;
23490;SDS011;14683;50.038;8.078;2023-02-15T08:21:59;79.93;;;20.52;;
23490;SDS011;14683;50.038;8.078;2023-02-15T08:24:30;66.13;;;20.10;;
23490;SDS011;14683;50.038;8.078;2023-02-15T08:26:57;137.60;;;23.25;;
23490;SDS011;14683;50.038;8.078;2023-02-15T08:29:25;62.17;;;21.35;;
23490;SDS011;14683;50.038;8.078;2023-02-15T08:31:52;87.55;;;21.95;;
23490;SDS011;14683;50.038;8.078;2023-02-15T08:34:20;73.93;;;21.27;;
23490;SDS011;14683;50.038;8.078;2023-02-15T08:36:46;59.35;;;21.38;;
23490;SDS011;14683;50.038;8.078;2023-02-15T08:39:13;60.15;;;21.55;;
23490;SDS011;14683;50.038;8.078;2023-02-15T08:41:44;56.55;;;19.65;;
23490;SDS011;14683;50.038;8.078;2023-02-15T08:44:11;49.65;;;18.23;;
23490;SDS011;14683;50.038;8.078;2023-02-15T08:46:39;56.28;;;19.77;;
23490;SDS011;14683;50.038;8.078;2023-02-15T08:49:07;50.08;;;17.50;;
23490;SDS011;14683;50.038;8.078;2023-02-15T08:51:34;60.17;;;18.27;;
23490;SDS011;14683;50.038;8.078;2023-02-15T08:54:03;52.58;;;18.13;;
23490;SDS011;14683;50.038;8.078;2023-02-15T08:56:32;60.08;;;19.58;;
23490;SDS011;14683;50.038;8.078;2023-02-15T08:59:00;48.38;;;17.50;;
23490;SDS011;14683;50.038;8.078;2023-02-15T09:01:31;53.60;;;18.52;;
23490;SDS011;14683;50.038;8.078;2023-02-15T09:03:59;69.78;;;25.55;;
23490;SDS011;14683;50.038;8.078;2023-02-15T09:06:36;46.53;;;18.15;;
23490;SDS011;14683;50.038;8.078;2023-02-15T09:09:03;44.05;;;18.02;;
23490;SDS011;14683;50.038;8.078;2023-02-15T09:11:36;49.72;;;18.05;;
23490;SDS011;14683;50.038;8.078;2023-02-15T09:14:08;56.17;;;18.40;;
23490;SDS011;14683;50.038;8.078;2023-02-15T09:16:36;49.58;;;18.27;;
23490;SDS011;14683;50.038;8.078;2023-02-15T09:19:03;47.10;;;16.85;;
23490;SDS011;14683;50.038;8.078;2023-02-15T09:21:33;47.53;;;17.60;;
23490;SDS011;14683;50.038;8.078;2023-02-15T09:24:02;44.03;;;17.38;;
23490;SDS011;14683;50.038;8.078;2023-02-15T09:26:31;56.00;;;17.65;;
23490;SDS011;14683;50.038;8.078;2023-02-15T09:28:59;45.67;;;18.52;;
23490;SDS011;14683;50.038;8.078;2023-02-15T09:31:28;39.30;;;15.70;;
23490;SDS011;14683;50.038;8.078;2023-02-15T09:33:56;42.25;;;15.93;;
23490;SDS011;14683;50.038;8.078;2023-02-15T09:36:23;41.42;;;17.30;;
23490;SDS011;14683;50.038;8.078;2023-02-15T09:38:58;50.30;;;17.25;;
23490;SDS011;14683;50.038;8.078;2023-02-15T09:44:25;39.58;;;17.50;;
23490;SDS011;14683;50.038;8.078;2023-02-15T09:46:58;49.25;;;17.92;;
23490;SDS011;14683;50.038;8.078;2023-02-15T09:51:57;47.42;;;19.08;;
23490;SDS011;14683;50.038;8.078;2023-02-15T09:57:50;45.17;;;17.90;;
23490;SDS011;14683;50.038;8.078;2023-02-15T10:00:34;41.75;;;16.73;;
23490;SDS011;14683;50.038;8.078;2023-02-15T10:12:04;39.13;;;16.75;;
23490;SDS011;14683;50.038;8.078;2023-02-15T10:20:16;40.60;;;17.30;;
23490;SDS011;14683;50.038;8.078;2023-02-15T10:49:58;32.65;;;16.10;;
23490;SDS011;14683;50.038;8.078;2023-02-15T10:52:42;42.92;;;17.38;;
23490;SDS011;14683;50.038;8.078;2023-02-15T11:06:30;37.45;;;17.63;;
23490;SDS011;14683;50.038;8.078;2023-02-15T11:09:02;41.70;;;19.60;;
23490;SDS011;14683;50.038;8.078;2023-02-15T11:11:39;35.60;;;17.60;;
23490;SDS011;14683;50.038;8.078;2023-02-15T11:16:49;37.70;;;19.85;;
23490;SDS011;14683;50.038;8.078;2023-02-15T11:19:19;42.55;;;19.70;;
23490;SDS011;14683;50.038;8.078;2023-02-15T11:21:49;39.92;;;19.85;;
23490;SDS011;14683;50.038;8.078;2023-02-15T11:24:17;41.10;;;20.48;;
23490;SDS011;14683;50.038;8.078;2023-02-15T11:29:36;40.35;;;19.95;;
23490;SDS011;14683;50.038;8.078;2023-02-15T11:37:27;37.40;;;18.92;;
23490;SDS011;14683;50.038;8.078;2023-02-15T11:39:57;35.80;;;18.58;;
23490;SDS011;14683;50.038;8.078;2023-02-15T11:42:23;36.25;;;18.83;;
23490;SDS011;14683;50.038;8.078;2023-02-15T11:45:04;38.85;;;18.23;;
23490;SDS011;14683;50.038;8.078;2023-02-15T11:47:40;34.30;;;17.02;;
23490;SDS011;14683;50.038;8.078;2023-02-15T11:50:10;33.42;;;16.90;;
23490;SDS011;14683;50.038;8.078;2023-02-15T11:52:39;36.67;;;18.77;;
23490;SDS011;14683;50.038;8.078;2023-02-15T11:55:09;32.75;;;17.55;;
23490;SDS011;14683;50.038;8.078;2023-02-15T11:57:39;31.52;;;17.75;;
23490;SDS011;14683;50.038;8.078;2023-02-15T12:02:42;32.97;;;17.80;;
23490;SDS011;14683;50.038;8.078;2023-02-15T12:05:17;35.03;;;18.73;;
23490;SDS011;14683;50.038;8.078;2023-02-15T12:07:54;33.58;;;18.17;;
23490;SDS011;14683;50.038;8.078;2023-02-15T12:10:27;32.13;;;17.40;;
23490;SDS011;14683;50.038;8.078;2023-02-15T12:13:18;34.03;;;17.98;;
23490;SDS011;14683;50.038;8.078;2023-02-15T12:15:45;47.90;;;23.90;;
23490;SDS011;14683;50.038;8.078;2023-02-15T12:21:08;36.30;;;20.63;;
23490;SDS011;14683;50.038;8.078;2023-02-15T12:23:41;38.50;;;20.10;;
23490;SDS011;14683;50.038;8.078;2023-02-15T12:26:07;36.90;;;19.73;;
23490;SDS011;14683;50.038;8.078;2023-02-15T12:31:00;38.97;;;21.35;;
23490;SDS011;14683;50.038;8.078;2023-02-15T12:33:34;57.67;;;28.45;;
23490;SDS011;14683;50.038;8.078;2023-02-15T12:38:38;35.97;;;20.58;;
23490;SDS011;14683;50.038;8.078;2023-02-15T12:41:05;35.08;;;18.60;;
23490;SDS011;14683;50.038;8.078;2023-02-15T12:43:47;29.05;;;16.63;;
23490;SDS011;14683;50.038;8.078;2023-02-15T12:49:24;32.78;;;16.60;;
23490;SDS011;14683;50.038;8.078;2023-02-15T12:51:58;40.53;;;23.58;;
23490;SDS011;14683;50.038;8.078;2023-02-15T12:54:39;34.22;;;20.17;;
23490;SDS011;14683;50.038;8.078;2023-02-15T12:59:52;49.50;;;20.90;;
23490;SDS011;14683;50.038;8.078;2023-02-15T13:02:28;34.92;;;17.65;;
23490;SDS011;14683;50.038;8.078;2023-02-15T13:07:57;80.85;;;18.42;;
23490;SDS011;14683;50.038;8.078;2023-02-15T13:10:29;34.10;;;17.52;;
23490;SDS011;14683;50.038;8.078;2023-02-15T13:12:57;37.10;;;20.98;;
23490;SDS011;14683;50.038;8.078;2023-02-15T13:15:34;35.00;;;17.65;;
23490;SDS011;14683;50.038;8.078;2023-02-15T13:18:01;38.97;;;18.02;;
23490;SDS011;14683;50.038;8.078;2023-02-15T13:20:28;39.53;;;16.85;;
23490;SDS011;14683;50.038;8.078;2023-02-15T13:22:59;39.22;;;18.13;;
23490;SDS011;14683;50.038;8.078;2023-02-15T13:25:31;36.20;;;19.00;;
23490;SDS011;14683;50.038;8.078;2023-02-15T13:28:11;32.35;;;18.48;;
23490;SDS011;14683;50.038;8.078;2023-02-15T13:30:42;32.63;;;17.88;;
23490;SDS011;14683;50.038;8.078;2023-02-15T13:41:12;32.72;;;17.80;;
23490;SDS011;14683;50.038;8.078;2023-02-15T13:52:44;36.65;;;17.88;;
23490;SDS011;14683;50.038;8.078;2023-02-15T13:55:20;39.92;;;19.60;;
23490;SDS011;14683;50.038;8.078;2023-02-15T14:01:07;31.27;;;19.40;;
23490;SDS011;14683;50.038;8.078;2023-02-15T14:09:11;36.83;;;19.83;;
23490;SDS011;14683;50.038;8.078;2023-02-15T14:16:56;38.97;;;20.10;;
23490;SDS011;14683;50.038;8.078;2023-02-15T14:19:57;38.78;;;21.38;;
23490;SDS011;14683;50.038;8.078;2023-02-15T14:22:32;43.67;;;21.80;;
23490;SDS011;14683;50.038;8.078;2023-02-15T14:27:43;41.58;;;23.67;;
23490;SDS011;14683;50.038;8.078;2023-02-15T14:30:19;43.40;;;23.35;;
23490;SDS011;14683;50.038;8.078;2023-02-15T14:32:51;46.38;;;27.45;;
23490;SDS011;14683;50.038;8.078;2023-02-15T14:35:20;42.47;;;22.83;;
23490;SDS011;14683;50.038;8.078;2023-02-15T14:46:21;46.50;;;22.23;;
23490;SDS011;14683;50.038;8.078;2023-02-15T14:48:52;43.08;;;22.45;;
23490;SDS011;14683;50.038;8.078;2023-02-15T14:57:19;50.42;;;27.15;;
23490;SDS011;14683;50.038;8.078;2023-02-15T15:07:49;43.90;;;25.40;;
23490;SDS011;14683;50.038;8.078;2023-02-15T15:15:11;43.03;;;23.27;;
23490;SDS011;14683;50.038;8.078;2023-02-15T15:20:10;43.30;;;23.77;;
23490;SDS011;14683;50.038;8.078;2023-02-15T15:22:42;44.67;;;24.17;;
23490;SDS011;14683;50.038;8.078;2023-02-15T15:25:10;41.90;;;22.45;;
23490;SDS011;14683;50.038;8.078;2023-02-15T15:38:09;47.40;;;25.83;;
23490;SDS011;14683;50.038;8.078;2023-02-15T15:49:00;44.53;;;23.52;;
23490;SDS011;14683;50.038;8.078;2023-02-15T15:51:31;45.17;;;23.90;;
23490;SDS011;14683;50.038;8.078;2023-02-15T15:53:58;43.42;;;23.92;;
23490;SDS011;14683;50.038;8.078;2023-02-15T15:56:28;49.38;;;25.48;;
23490;SDS011;14683;50.038;8.078;2023-02-15T15:59:00;42.92;;;23.45;;
23490;SDS011;14683;50.038;8.078;2023-02-15T16:01:29;44.47;;;23.80;;
23490;SDS011;14683;50.038;8.078;2023-02-15T16:03:57;44.85;;;23.73;;
23490;SDS011;14683;50.038;8.078;2023-02-15T16:06:27;47.45;;;24.55;;
23490;SDS011;14683;50.038;8.078;2023-02-15T16:09:08;46.92;;;23.83;;
23490;SDS011;14683;50.038;8.078;2023-02-15T16:11:35;47.38;;;24.73;;
23490;SDS011;14683;50.038;8.078;2023-02-15T16:14:11;43.50;;;23.63;;
23490;SDS011;14683;50.038;8.078;2023-02-15T16:16:39;45.03;;;24.23;;
23490;SDS011;14683;50.038;8.078;2023-02-15T16:19:05;46.22;;;25.08;;
23490;SDS011;14683;50.038;8.078;2023-02-15T16:21:32;44.22;;;23.98;;
23490;SDS011;14683;50.038;8.078;2023-02-15T16:29:33;43.00;;;24.65;;
23490;SDS011;14683;50.038;8.078;2023-02-15T16:32:03;89.10;;;46.35;;
23490;SDS011;14683;50.038;8.078;2023-02-15T16:34:31;71.93;;;35.60;;
23490;SDS011;14683;50.038;8.078;2023-02-15T16:37:14;51.30;;;26.42;;
23490;SDS011;14683;50.038;8.078;2023-02-15T16:39:41;54.70;;;28.40;;
23490;SDS011;14683;50.038;8.078;2023-02-15T16:42:08;56.42;;;29.35;;
23490;SDS011;14683;50.038;8.078;2023-02-15T16:44:36;55.33;;;27.90;;
23490;SDS011;14683;50.038;8.078;2023-02-15T16:47:02;96.53;;;45.40;;
23490;SDS011;14683;50.038;8.078;2023-02-15T16:49:28;52.85;;;28.90;;
23490;SDS011;14683;50.038;8.078;2023-02-15T16:52:05;51.08;;;25.55;;
23490;SDS011;14683;50.038;8.078;2023-02-15T16:54:32;55.13;;;26.40;;
23490;SDS011;14683;50.038;8.078;2023-02-15T16:56:59;56.97;;;30.05;;
23490;SDS011;14683;50.038;8.078;2023-02-15T17:01:59;47.90;;;25.13;;
23490;SDS011;14683;50.038;8.078;2023-02-15T17:04:29;50.13;;;25.75;;
23490;SDS011;14683;50.038;8.078;2023-02-15T17:06:57;54.65;;;27.35;;
23490;SDS011;14683;50.038;8.078;2023-02-15T17:09:25;56.83;;;28.52;;
23490;SDS011;14683;50.038;8.078;2023-02-15T17:11:51;54.00;;;27.77;;
23490;SDS011;14683;50.038;8.078;2023-02-15T17:16:53;63.25;;;28.45;;
23490;SDS011;14683;50.038;8.078;2023-02-15T17:19:29;62.25;;;32.10;;
23490;SDS011;14683;50.038;8.078;2023-02-15T17:21:58;64.38;;;31.45;;
23490;SDS011;14683;50.038;8.078;2023-02-15T17:24:33;55.45;;;28.25;;
23490;SDS011;14683;50.038;8.078;2023-02-15T17:27:05;58.03;;;29.33;;
23490;SDS011;14683;50.038;8.078;2023-02-15T17:29:36;57.55;;;28.70;;
23490;SDS011;14683;50.038;8.078;2023-02-15T17:32:04;66.60;;;30.45;;
23490;SDS011;14683;50.038;8.078;2023-02-15T17:37:14;64.40;;;30.73;;
23490;SDS011;14683;50.038;8.078;2023-02-15T17:39:49;63.15;;;30.00;;
23490;SDS011;14683;50.038;8.078;2023-02-15T17:42:15;63.83;;;30.52;;
23490;SDS011;14683;50.038;8.078;2023-02-15T17:47:09;64.28;;;30.70;;
23490;SDS011;14683;50.038;8.078;2023-02-15T17:49:40;62.45;;;28.65;;
23490;SDS011;14683;50.038;8.078;2023-02-15T17:52:08;61.88;;;29.92;;
23490;SDS011;14683;50.038;8.078;2023-02-15T17:54:37;63.75;;;30.88;;
23490;SDS011;14683;50.038;8.078;2023-02-15T17:57:21;62.55;;;30.63;;
23490;SDS011;14683;50.038;8.078;2023-02-15T18:02:37;64.88;;;30.38;;
23490;SDS011;14683;50.038;8.078;2023-02-15T18:05:22;60.67;;;30.00;;
23490;SDS011;14683;50.038;8.078;2023-02-15T18:08:09;61.67;;;28.05;;
23490;SDS011;14683;50.038;8.078;2023-02-15T18:10:55;76.97;;;31.20;;
23490;SDS011;14683;50.038;8.078;2023-02-15T18:13:40;65.35;;;30.50;;
23490;SDS011;14683;50.038;8.078;2023-02-15T18:16:09;70.82;;;32.35;;
23490;SDS011;14683;50.038;8.078;2023-02-15T18:18:38;65.97;;;31.17;;
23490;SDS011;14683;50.038;8.078;2023-02-15T18:21:04;64.95;;;30.30;;
23490;SDS011;14683;50.038;8.078;2023-02-15T18:23:32;69.10;;;32.35;;
23490;SDS011;14683;50.038;8.078;2023-02-15T18:25:59;66.45;;;31.25;;
23490;SDS011;14683;50.038;8.078;2023-02-15T18:28:25;77.10;;;32.55;;
23490;SDS011;14683;50.038;8.078;2023-02-15T18:30:50;74.38;;;31.42;;
23490;SDS011;14683;50.038;8.078;2023-02-15T18:33:37;76.40;;;32.35;;
23490;SDS011;14683;50.038;8.078;2023-02-15T18:36:05;73.28;;;31.40;;
23490;SDS011;14683;50.038;8.078;2023-02-15T18:38:32;77.72;;;32.45;;
23490;SDS011;14683;50.038;8.078;2023-02-15T18:41:05;81.10;;;34.75;;
23490;SDS011;14683;50.038;8.078;2023-02-15T18:43:31;80.18;;;34.90;;
23490;SDS011;14683;50.038;8.078;2023-02-15T18:45:57;77.60;;;32.90;;
23490;SDS011;14683;50.038;8.078;2023-02-15T18:48:23;73.65;;;31.75;;
23490;SDS011;14683;50.038;8.078;2023-02-15T18:50:49;78.95;;;36.50;;
23490;SDS011;14683;50.038;8.078;2023-02-15T18:53:19;81.32;;;36.15;;
23490;SDS011;14683;50.038;8.078;2023-02-15T18:55:45;81.20;;;35.72;;
23490;SDS011;14683;50.038;8.078;2023-02-15T18:58:18;90.22;;;36.28;;
23490;SDS011;14683;50.038;8.078;2023-02-15T19:00:46;81.90;;;34.22;;
23490;SDS011;14683;50.038;8.078;2023-02-15T19:03:13;86.95;;;35.17;;
23490;SDS011;14683;50.038;8.078;2023-02-15T19:05:40;327.13;;;49.63;;
23490;SDS011;14683;50.038;8.078;2023-02-15T19:08:12;290.73;;;47.40;;
23490;SDS011;14683;50.038;8.078;2023-02-15T19:10:41;192.20;;;43.53;;
23490;SDS011;14683;50.038;8.078;2023-02-15T19:13:11;105.00;;;39.17;;
23490;SDS011;14683;50.038;8.078;2023-02-15T19:15:37;267.42;;;46.20;;
23490;SDS011;14683;50.038;8.078;2023-02-15T19:18:03;129.73;;;41.50;;
23490;SDS011;14683;50.038;8.078;2023-02-15T19:20:31;148.73;;;39.78;;
23490;SDS011;14683;50.038;8.078;2023-02-15T19:22:58;290.65;;;49.08;;
23490;SDS011;14683;50.038;8.078;2023-02-15T19:25:27;172.95;;;43.40;;
23490;SDS011;14683;50.038;8.078;2023-02-15T19:27:54;117.05;;;39.67;;
23490;SDS011;14683;50.038;8.078;2023-02-15T19:30:21;158.65;;;41.28;;
23490;SDS011;14683;50.038;8.078;2023-02-15T19:32:51;105.90;;;39.22;;
23490;SDS011;14683;50.038;8.078;2023-02-15T19:35:18;116.30;;;40.55;;
23490;SDS011;14683;50.038;8.078;2023-02-15T19:37:57;120.57;;;41.60;;
23490;SDS011;14683;50.038;8.078;2023-02-15T19:40:26;154.88;;;40.72;;
23490;SDS011;14683;50.038;8.078;2023-02-15T19:42:59;366.98;;;51.08;;
23490;SDS011;14683;50.038;8.078;2023-02-15T19:45:27;128.18;;;40.47;;
23490;SDS011;14683;50.038;8.078;2023-02-15T19:47:54;119.88;;;41.53;;
23490;SDS011;14683;50.038;8.078;2023-02-15T19:50:25;169.98;;;43.35;;
23490;SDS011;14683;50.038;8.078;2023-02-15T19:52:53;102.45;;;40.63;;
23490;SDS011;14683;50.038;8.078;2023-02-15T19:55:22;199.00;;;43.47;;
23490;SDS011;14683;50.038;8.078;2023-02-15T19:57:50;120.63;;;38.97;;
23490;SDS011;14683;50.038;8.078;2023-02-15T20:00:17;116.80;;;38.05;;
23490;SDS011;14683;50.038;8.078;2023-02-15T20:02:46;133.70;;;38.83;;
23490;SDS011;14683;50.038;8.078;2023-02-15T20:05:12;225.98;;;43.28;;
23490;SDS011;14683;50.038;8.078;2023-02-15T20:07:39;107.13;;;37.47;;
23490;SDS011;14683;50.038;8.078;2023-02-15T20:10:12;187.93;;;43.53;;
23490;SDS011;14683;50.038;8.078;2023-02-15T20:12:40;168.93;;;39.85;;
23490;SDS011;14683;50.038;8.078;2023-02-15T20:15:15;119.63;;;37.63;;
23490;SDS011;14683;50.038;8.078;2023-02-15T20:17:42;124.40;;;38.83;;
23490;SDS011;14683;50.038;8.078;2023-02-15T20:22:34;145.48;;;39.88;;
23490;SDS011;14683;50.038;8.078;2023-02-15T20:27:26;166.50;;;41.47;;
23490;SDS011;14683;50.038;8.078;2023-02-15T20:29:52;168.70;;;42.15;;
23490;SDS011;14683;50.038;8.078;2023-02-15T20:32:21;155.07;;;38.42;;
23490;SDS011;14683;50.038;8.078;2023-02-15T20:34:47;208.75;;;42.35;;
23490;SDS011;14683;50.038;8.078;2023-02-15T20:37:17;117.68;;;38.58;;
23490;SDS011;14683;50.038;8.078;2023-02-15T20:39:47;194.85;;;42.35;;
23490;SDS011;14683;50.038;8.078;2023-02-15T20:42:15;163.98;;;43.05;;
23490;SDS011;14683;50.038;8.078;2023-02-15T20:44:42;150.02;;;38.45;;
23490;SDS011;14683;50.038;8.078;2023-02-15T20:47:08;107.70;;;38.70;;
23490;SDS011;14683;50.038;8.078;2023-02-15T20:49:34;165.25;;;40.72;;
23490;SDS011;14683;50.038;8.078;2023-02-15T20:52:00;157.10;;;40.53;;
23490;SDS011;14683;50.038;8.078;2023-02-15T20:54:32;112.88;;;38.30;;
23490;SDS011;14683;50.038;8.078;2023-02-15T20:56:59;245.75;;;40.92;;
23490;SDS011;14683;50.038;8.078;2023-02-15T20:59:30;207.00;;;42.05;;
23490;SDS011;14683;50.038;8.078;2023-02-15T21:01:58;318.17;;;47.60;;
23490;SDS011;14683;50.038;8.078;2023-02-15T21:04:32;162.43;;;39.38;;
23490;SDS011;14683;50.038;8.078;2023-02-15T21:06:59;264.77;;;44.13;;
23490;SDS011;14683;50.038;8.078;2023-02-15T21:09:25;268.30;;;42.28;;
23490;SDS011;14683;50.038;8.078;2023-02-15T21:11:52;150.93;;;41.00;;
23490;SDS011;14683;50.038;8.078;2023-02-15T21:14:20;190.25;;;42.53;;
23490;SDS011;14683;50.038;8.078;2023-02-15T21:16:48;251.93;;;47.47;;
23490;SDS011;14683;50.038;8.078;2023-02-15T21:19:19;159.15;;;40.50;;
23490;SDS011;14683;50.038;8.078;2023-02-15T21:21:47;131.65;;;37.65;;
23490;SDS011;14683;50.038;8.078;2023-02-15T21:24:15;385.88;;;49.70;;
23490;SDS011;14683;50.038;8.078;2023-02-15T21:26:45;275.02;;;45.17;;
23490;SDS011;14683;50.038;8.078;2023-02-15T21:29:18;197.48;;;43.20;;
23490;SDS011;14683;50.038;8.078;2023-02-15T21:31:46;111.85;;;38.65;;
23490;SDS011;14683;50.038;8.078;2023-02-15T21:34:13;177.27;;;41.95;;
23490;SDS011;14683;50.038;8.078;2023-02-15T21:36:40;204.77;;;42.30;;
23490;SDS011;14683;50.038;8.078;2023-02-15T21:39:12;172.90;;;40.38;;
23490;SDS011;14683;50.038;8.078;2023-02-15T21:41:51;158.27;;;39.45;;
23490;SDS011;14683;50.038;8.078;2023-02-15T21:44:53;151.30;;;40.40;;
